BA84 / G-CIVJ 7700 Squawk Report (18th of February, 2020)

Aircraft B744 Reg No. G-CIVJ Age 23 years old
Model 747 Jet engines 4 First flight 31-01-97
Registered 11-02-97 Rollout N/A Delivered 11-02-97
Construction No. 25817 Line No. 1102 Series 436
ADSHEX 400612 Airline name British Airways Owner N/A
Airfield based Heathrow~Gtr London~G First tracked N/A

Flight history for G-CIVJ

Route Flight No Date Playback
Miami Intl (MIA) - Heathrow (LHR) BA1529 2020-04-06 10:55:00
Heathrow (LHR) - Miami Intl (MIA) BA9150 2020-04-05 00:03:00
San Francisco Intl (SFO) - Heathrow (LHR) BA284 2020-04-04 13:32:00
???? BA284 2020-03-29 07:11:00
???? BA287 2020-03-28 02:26:00
Vancouver International (YVR) - Heathrow (LHR) BA84 2020-03-27 12:55:00
Vancouver International (YVR) - Heathrow (LHR) BA84 2020-03-26 18:26:00
Heathrow (LHR) - Vancouver International (YVR) BA85 2020-03-26 05:48:00
Cape Town International (CPT) - Heathrow (LHR) BA42 2020-03-25 06:36:00
Heathrow (LHR) - Cape Town International (CPT) BA43 2020-03-24 06:40:00
Kotoka International (ACC) - Heathrow (LHR) BA78 2020-03-23 18:31:00
Heathrow (LHR) - Kotoka International (ACC) BA81 2020-03-23 05:15:00
Kotoka International (ACC) - Heathrow (LHR) BA78 2020-03-22 13:37:00
Heathrow (LHR) - Kotoka International (ACC) BA81 2020-03-21 19:16:00
Miami Intl (MIA) - Heathrow (LHR) BA206 2020-03-21 13:29:00
Heathrow (LHR) - Miami Intl (MIA) BA207 2020-03-20 18:35:00
Kotoka International (ACC) - Heathrow (LHR) BA78 2020-03-20 09:16:00
Heathrow (LHR) - Kotoka International (ACC) BA81 2020-03-19 19:51:00
Cape Town International (CPT) - Heathrow (LHR) BA42 2020-03-19 07:19:00
City (LCY) - Shannon (SNN) - John F Kennedy Intl (JFK) BA1 2020-03-17 20:15:00
Time Lat Lon Altitude Heading Speed Vertical Rate
2020-02-18 21:18:23 GMT 51.473858 -0.428848 25 0 0
2020-02-18 21:18:23 GMT 51.473858 -0.428848 25 0 0
2020-02-18 21:18:23 GMT 51.473858 -0.428848 25 0 0
2020-02-18 21:18:30 GMT 51.473831 -0.428819 25 0 0
2020-02-18 21:18:30 GMT 51.473831 -0.428819 0 1
2020-02-18 21:18:23 GMT 51.473858 -0.428848 0 1
2020-02-18 21:18:03 GMT 51.473961 -0.428905 0 1
2020-02-18 21:17:52 GMT 51.474026 -0.428931 0 2
2020-02-18 21:17:43 GMT 51.474079 -0.428963 0 1
2020-02-18 21:17:38 GMT 51.474113 -0.428982 0 1
2020-02-18 21:17:32 GMT 51.474140 -0.428986 0 2
2020-02-18 21:17:25 GMT 51.474186 -0.429024 0 2
2020-02-18 21:17:21 GMT 51.474209 -0.429042 0 1
2020-02-18 21:17:06 GMT 51.474312 -0.429077 0 2
2020-02-18 21:17:02 GMT 51.474335 -0.429096 0 2
2020-02-18 21:16:51 GMT 51.474403 -0.429098 0 2
2020-02-18 21:16:41 GMT 51.474472 -0.429116 0 2
2020-02-18 21:16:26 GMT 51.474567 -0.429058 0 2
2020-02-18 21:16:11 GMT 51.474667 -0.428986 0 2
2020-02-18 21:16:05 GMT 51.474705 -0.428963 0 2
2020-02-18 21:15:55 GMT 51.474758 -0.428875 0 2
2020-02-18 21:15:48 GMT 51.474789 -0.428829 0 2
2020-02-18 21:15:45 GMT 51.474792 -0.428801 0 2
2020-02-18 21:15:34 GMT 51.474861 -0.428764 0 1
2020-02-18 21:15:24 GMT 51.474850 -0.428615 0 2
2020-02-18 21:15:21 GMT 51.474834 -0.428658 0 5
2020-02-18 21:15:06 GMT 51.474838 -0.428411 0 2
2020-02-18 21:14:52 GMT 51.474827 -0.428244 0 2
2020-02-18 21:14:46 GMT 51.474804 -0.428188 0 2
2020-02-18 21:14:27 GMT 51.474770 -0.427947 0 2
2020-02-18 21:14:21 GMT 51.474747 -0.427891 0 2
2020-02-18 21:14:11 GMT 51.474724 -0.427780 0 2
2020-02-18 21:14:08 GMT 51.474712 -0.427762 0 2
2020-02-18 21:13:58 GMT 51.474693 -0.427647 0 2
2020-02-18 21:13:46 GMT 51.474682 -0.427551 0 2
2020-02-18 21:13:43 GMT 51.474678 -0.427502 0 2
2020-02-18 21:13:39 GMT 51.474670 -0.427456 0 2
2020-02-18 21:13:31 GMT 51.474644 -0.427353 0 2
2020-02-18 21:13:28 GMT 51.474644 -0.427335 0 2
2020-02-18 21:13:20 GMT 51.474632 -0.427205 0 2
2020-02-18 21:13:14 GMT 51.474613 -0.427132 0 2
2020-02-18 21:13:10 GMT 51.474602 -0.427074 0 3
2020-02-18 21:13:00 GMT 51.474579 -0.426941 0 3
2020-02-18 21:12:50 GMT 51.474567 -0.426769 0 2
2020-02-18 21:12:25 GMT 51.474499 -0.426407 0 2
2020-02-18 21:12:16 GMT 51.474461 -0.426254 0 2
2020-02-18 21:12:10 GMT 51.474438 -0.426197 0 3
2020-02-18 21:11:33 GMT 51.474346 -0.425665 0 2
2020-02-18 21:11:21 GMT 51.474312 -0.425479 0 2
2020-02-18 21:11:14 GMT 51.474285 -0.425415 0 2
2020-02-18 21:11:09 GMT 51.474251 -0.425358 0 2
2020-02-18 21:10:53 GMT 51.474232 -0.425145 0 2
2020-02-18 21:10:47 GMT 51.474251 -0.425053 0 4
2020-02-18 21:10:34 GMT 51.474239 -0.424881 0 3
2020-02-18 21:10:31 GMT 51.474239 -0.424862 0 3
2020-02-18 21:10:19 GMT 51.474232 -0.424700 0 3
2020-02-18 21:10:06 GMT 51.474239 -0.424500 0 4
2020-02-18 21:09:59 GMT 51.474239 -0.424404 0 2
2020-02-18 21:09:53 GMT 51.474251 -0.424309 0 2
2020-02-18 21:09:19 GMT 51.474255 -0.423994 0 0
2020-02-18 21:08:52 GMT 51.474251 -0.424004 0 0
2020-02-18 21:08:34 GMT 51.474243 -0.424143 0 0
2020-02-18 21:08:13 GMT 51.474251 -0.424309 0 0
2020-02-18 21:07:49 GMT 51.474251 -0.424480 0 0
2020-02-18 21:06:05 GMT 51.474277 -0.424519 0 6
2020-02-18 21:05:39 GMT 51.474251 -0.424232 0 2
2020-02-18 21:05:22 GMT 51.474251 -0.424023 0 3
2020-02-18 21:03:24 GMT 51.474251 -0.422611 0 2
2020-02-18 21:03:15 GMT 51.474255 -0.422528 0 2
2020-02-18 21:03:05 GMT 51.474251 -0.422401 0 2
2020-02-18 21:02:02 GMT 51.474255 -0.422101 0 0
2020-02-18 21:01:15 GMT 51.474255 -0.421842 0 0
2020-02-18 21:01:12 GMT 51.474251 -0.421848 0 0
2020-02-18 21:00:56 GMT 51.474289 -0.421916 0 0
2020-02-18 21:00:47 GMT 51.474312 -0.421990 0 1
2020-02-18 21:00:24 GMT 51.474415 -0.422157 0 2
2020-02-18 21:00:21 GMT 51.474426 -0.422173 0 1
2020-02-18 20:59:23 GMT 51.474758 -0.422454 0 1
2020-02-18 20:59:18 GMT 51.474781 -0.422454 0 2
2020-02-18 20:59:09 GMT 51.474834 -0.422478 0 2
2020-02-18 20:58:55 GMT 51.474926 -0.422478 0 1
2020-02-18 20:58:45 GMT 51.474987 -0.422459 0 2
2020-02-18 20:58:40 GMT 51.475021 -0.422459 0 2
2020-02-18 20:58:22 GMT 51.475124 -0.422380 0 2
2020-02-18 20:57:36 GMT 51.475254 -0.422268 0 0
2020-02-18 20:57:21 GMT 51.475254 -0.422287 0 0
2020-02-18 20:57:16 GMT 51.475250 -0.422268 0 0
2020-02-18 20:56:21 GMT 51.475254 -0.422287 0 0
2020-02-18 20:55:51 GMT 51.475250 -0.422287 0 0
2020-02-18 20:55:41 GMT 51.475254 -0.422287 0 0
2020-02-18 20:55:06 GMT 51.475250 -0.422287 0 0
2020-02-18 20:54:51 GMT 51.475254 -0.422287 0 0
2020-02-18 20:54:16 GMT 51.475250 -0.422287 0 0
2020-02-18 20:54:11 GMT 51.475254 -0.422287 0 0
2020-02-18 20:53:50 GMT 51.475250 -0.422287 0 0
2020-02-18 20:53:25 GMT 51.475254 -0.422287 0 0
2020-02-18 20:53:00 GMT 51.475250 -0.422287 0 0
2020-02-18 20:52:40 GMT 51.475254 -0.422287 0 0
2020-02-18 20:52:04 GMT 51.475250 -0.422287 0 0
2020-02-18 20:50:49 GMT 51.475254 -0.422287 0 0
2020-02-18 20:49:49 GMT 51.475250 -0.422287 0 0
2020-02-18 20:49:04 GMT 51.475254 -0.422287 0 0
2020-02-18 20:48:54 GMT 51.475254 -0.422268 0 0
2020-02-18 20:48:34 GMT 51.475250 -0.422287 0 0
2020-02-18 20:48:19 GMT 51.475254 -0.422287 0 0
2020-02-18 20:48:14 GMT 51.475262 -0.422287 0 0
2020-02-18 20:47:53 GMT 51.475239 -0.422306 0 0
2020-02-18 20:47:04 GMT 51.475243 -0.422306 0 0
2020-02-18 20:46:19 GMT 51.475250 -0.422287 0 0
2020-02-18 20:46:09 GMT 51.475243 -0.422287 0 0
2020-02-18 20:45:43 GMT 51.475250 -0.422287 0 0
2020-02-18 20:45:08 GMT 51.475243 -0.422287 0 0
2020-02-18 20:45:03 GMT 51.475250 -0.422306 0 0
2020-02-18 20:44:48 GMT 51.475243 -0.422306 0 0
2020-02-18 20:44:33 GMT 51.475243 -0.422287 0 0
2020-02-18 20:44:23 GMT 51.475250 -0.422287 0 0
2020-02-18 20:44:14 GMT 51.475243 -0.422306 0 0
2020-02-18 20:43:44 GMT 51.475239 -0.422306 0 0
2020-02-18 20:43:24 GMT 51.475243 -0.422306 0 0
2020-02-18 20:43:14 GMT 51.475239 -0.422306 0 0
2020-02-18 20:41:09 GMT 51.475239 -0.422306 0 0
2020-02-18 20:41:04 GMT 51.475243 -0.422306 0 0
2020-02-18 20:39:54 GMT 51.475239 -0.422306 0 0
2020-02-18 20:39:18 GMT 51.475243 -0.422306 0 0
2020-02-18 20:39:13 GMT 51.475239 -0.422306 0 0
2020-02-18 20:39:03 GMT 51.475243 -0.422306 0 0
2020-02-18 20:38:13 GMT 51.475239 -0.422306 0 0
2020-02-18 20:38:03 GMT 51.475243 -0.422306 0 0
2020-02-18 20:36:48 GMT 51.475239 -0.422306 0 0
2020-02-18 20:36:03 GMT 51.475243 -0.422306 0 0
2020-02-18 20:35:53 GMT 51.475239 -0.422306 0 0
2020-02-18 20:34:23 GMT 51.475239 -0.422306 0 0
2020-02-18 20:34:18 GMT 51.475243 -0.422306 0 0
2020-02-18 20:32:18 GMT 51.475239 -0.422306 0 0
2020-02-18 20:32:08 GMT 51.475243 -0.422306 0 0
2020-02-18 20:31:57 GMT 51.475239 -0.422306 0 0
2020-02-18 20:31:37 GMT 51.475243 -0.422306 0 0
2020-02-18 20:30:16 GMT 51.475250 -0.422287 0 0
2020-02-18 20:29:21 GMT 51.475243 -0.422306 0 0
2020-02-18 20:29:11 GMT 51.475250 -0.422306 0 0
2020-02-18 20:27:46 GMT 51.475243 -0.422306 0 0
2020-02-18 20:27:26 GMT 51.475239 -0.422306 0 0
2020-02-18 20:27:16 GMT 51.475243 -0.422306 0 0
2020-02-18 20:27:01 GMT 51.475239 -0.422306 0 0
2020-02-18 20:25:31 GMT 51.475243 -0.422306 0 0
2020-02-18 20:24:51 GMT 51.475239 -0.422306 0 0
2020-02-18 20:24:01 GMT 51.475243 -0.422306 0 0
2020-02-18 20:23:46 GMT 51.475239 -0.422306 0 0
2020-02-18 20:23:30 GMT 51.475243 -0.422306 0 0
2020-02-18 20:21:36 GMT 51.475243 -0.422306 0 0
2020-02-18 20:21:31 GMT 51.475239 -0.422306 0 0
2020-02-18 20:20:07 GMT 51.475243 -0.422306 0 0
2020-02-18 20:19:21 GMT 51.475239 -0.422306 0 0
2020-02-18 20:19:16 GMT 51.475243 -0.422306 0 0
2020-02-18 20:17:45 GMT 51.475250 -0.422306 0 0
2020-02-18 20:17:21 GMT 51.475250 -0.422287 0 0
2020-02-18 20:15:35 GMT 51.475243 -0.422287 0 0
2020-02-18 20:14:56 GMT 51.475243 -0.422306 0 0
2020-02-18 20:14:51 GMT 51.475250 -0.422287 0 0
2020-02-18 20:13:35 GMT 51.475250 -0.422287 0 0
2020-02-18 20:12:31 GMT 51.475243 -0.422287 0 0
2020-02-18 20:10:50 GMT 51.475250 -0.422287 0 0
2020-02-18 20:10:35 GMT 51.475254 -0.422287 0 0
2020-02-18 20:09:24 GMT 51.475250 -0.422287 0 0
2020-02-18 20:08:44 GMT 51.475254 -0.422306 0 0
2020-02-18 20:07:54 GMT 51.475250 -0.422287 0 0
2020-02-18 20:07:24 GMT 51.475262 -0.422287 0 0
2020-02-18 20:07:14 GMT 51.475266 -0.422287 0 0
2020-02-18 20:05:53 GMT 51.475254 -0.422287 0 0
2020-02-18 20:04:43 GMT 51.475262 -0.422287 0 0
2020-02-18 20:04:33 GMT 51.475266 -0.422287 0 0
2020-02-18 20:04:28 GMT 51.475262 -0.422287 0 0
2020-02-18 20:03:53 GMT 51.475250 -0.422287 0 0
2020-02-18 20:03:43 GMT 51.475254 -0.422287 0 0
2020-02-18 20:02:58 GMT 51.475250 -0.422287 0 0
2020-02-18 20:02:43 GMT 51.475254 -0.422287 0 0
2020-02-18 20:02:38 GMT 51.475250 -0.422287 0 0
2020-02-18 20:02:17 GMT 51.475254 -0.422287 0 0
2020-02-18 20:02:09 GMT 51.475193 -0.422231 0 0
2020-02-18 20:01:57 GMT 51.474255 -0.421693 0 3
2020-02-18 20:01:02 GMT 51.475250 -0.422287 0 0
2020-02-18 20:00:42 GMT 51.475262 -0.422287 0 0
2020-02-18 20:00:22 GMT 51.475250 -0.422287 0 0
2020-02-18 20:00:12 GMT 51.475254 -0.422287 0 0
2020-02-18 19:59:28 GMT 51.475262 -0.422287 0 0
2020-02-18 19:59:17 GMT 51.475254 -0.422287 0 0
2020-02-18 19:59:12 GMT 51.475262 -0.422287 0 0
2020-02-18 19:59:02 GMT 51.475254 -0.422287 0 0
2020-02-18 19:57:33 GMT 51.475250 -0.422287 0 0
2020-02-18 19:57:03 GMT 51.475254 -0.422287 0 0
2020-02-18 19:55:16 GMT 51.475250 -0.422287 0 0
2020-02-18 19:55:06 GMT 51.475254 -0.422287 0 0
2020-02-18 19:54:36 GMT 51.475250 -0.422287 0 0
2020-02-18 19:53:05 GMT 51.475254 -0.422287 0 0
2020-02-18 19:52:40 GMT 51.475250 -0.422287 0 0
2020-02-18 19:52:31 GMT 51.475262 -0.422287 0 0
2020-02-18 19:52:10 GMT 51.475254 -0.422287 0 0
2020-02-18 19:51:00 GMT 51.475254 -0.422287 0 0
2020-02-18 19:50:15 GMT 51.475250 -0.422287 0 0
2020-02-18 19:49:35 GMT 51.475254 -0.422287 0 0
2020-02-18 19:49:05 GMT 51.475262 -0.422287 0 0
2020-02-18 19:48:25 GMT 51.475254 -0.422287 0 0
2020-02-18 19:47:55 GMT 51.475250 -0.422287 0 0
2020-02-18 19:47:20 GMT 51.475254 -0.422287 0 0
2020-02-18 19:46:45 GMT 51.475250 -0.422287 0 0
2020-02-18 19:46:16 GMT 51.475254 -0.422287 0 0
2020-02-18 19:46:01 GMT 51.475250 -0.422287 0 0
2020-02-18 19:44:55 GMT 51.475254 -0.422287 0 0
2020-02-18 19:44:25 GMT 51.475266 -0.422287 0 0
2020-02-18 19:44:05 GMT 51.475262 -0.422287 0 0
2020-02-18 19:43:46 GMT 51.475254 -0.422287 0 0
2020-02-18 19:43:36 GMT 51.475262 -0.422287 0 0
2020-02-18 19:43:25 GMT 51.475254 -0.422287 0 0
2020-02-18 19:43:05 GMT 51.475262 -0.422287 0 0
2020-02-18 19:42:50 GMT 51.475254 -0.422287 0 0
2020-02-18 19:41:50 GMT 51.475262 -0.422287 0 0
2020-02-18 19:41:35 GMT 51.475254 -0.422287 0 0
2020-02-18 19:41:15 GMT 51.475262 -0.422287 0 0
2020-02-18 19:40:55 GMT 51.475250 -0.422287 0 0
2020-02-18 19:39:20 GMT 51.475254 -0.422287 0 0
2020-02-18 19:38:40 GMT 51.475250 -0.422287 0 0
2020-02-18 19:38:00 GMT 51.475262 -0.422287 0 0
2020-02-18 19:37:50 GMT 51.475254 -0.422287 0 0
2020-02-18 19:37:35 GMT 51.475250 -0.422287 0 0
2020-02-18 19:36:35 GMT 51.475254 -0.422287 0 0
2020-02-18 19:34:50 GMT 51.475254 -0.422287 0 0
2020-02-18 19:34:19 GMT 51.475250 -0.422287 0 0
2020-02-18 19:33:34 GMT 51.475254 -0.422287 0 0
2020-02-18 19:33:09 GMT 51.475250 -0.422287 0 0
2020-02-18 19:32:38 GMT 51.475254 -0.422287 0 0
2020-02-18 19:32:08 GMT 51.475266 -0.422287 0 0
2020-02-18 19:31:33 GMT 51.475262 -0.422287 0 0
2020-02-18 19:30:48 GMT 51.475266 -0.422287 0 0
2020-02-18 19:29:28 GMT 51.475262 -0.422287 0 0
2020-02-18 19:29:23 GMT 51.475262 -0.422268 0 0
2020-02-18 19:29:13 GMT 51.475266 -0.422287 0 0
2020-02-18 19:28:33 GMT 51.475262 -0.422287 0 0
2020-02-18 19:28:12 GMT 51.475254 -0.422287 0 0
2020-02-18 19:28:02 GMT 51.475266 -0.422287 0 0
2020-02-18 19:27:43 GMT 51.475262 -0.422287 0 0
2020-02-18 19:26:58 GMT 51.475254 -0.422287 0 0
2020-02-18 19:26:12 GMT 51.475262 -0.422287 0 0
2020-02-18 19:24:18 GMT 51.475262 -0.422287 0 0
2020-02-18 19:24:03 GMT 51.475254 -0.422287 0 0
2020-02-18 19:23:43 GMT 51.475266 -0.422287 0 0
2020-02-18 19:23:38 GMT 51.475262 -0.422287 0 0
2020-02-18 19:23:28 GMT 51.475239 -0.422250 0 0
2020-02-18 19:23:03 GMT 51.475262 -0.422287 0 0
2020-02-18 19:22:53 GMT 51.475266 -0.422287 0 0
2020-02-18 19:22:18 GMT 51.475262 -0.422287 0 0
2020-02-18 19:21:23 GMT 51.475254 -0.422287 0 0
2020-02-18 19:20:32 GMT 51.475262 -0.422287 0 0
2020-02-18 19:19:42 GMT 51.475254 -0.422287 0 0
2020-02-18 19:18:22 GMT 51.475254 -0.422287 0 0
2020-02-18 19:18:02 GMT 51.475262 -0.422287 0 0
2020-02-18 19:17:47 GMT 51.475254 -0.422287 0 0
2020-02-18 19:16:52 GMT 51.475239 -0.422250 0 0
2020-02-18 19:16:12 GMT 51.475262 -0.422287 0 0
2020-02-18 19:15:58 GMT 51.475266 -0.422287 0 0
2020-02-18 19:15:37 GMT 51.475250 -0.422268 0 3
2020-02-18 19:15:18 GMT 51.475262 -0.422268 0 0
2020-02-18 19:15:07 GMT 51.475101 -0.422020 0 0
2020-02-18 19:14:56 GMT 51.474743 -0.421524 0 6
2020-02-18 19:14:35 GMT 51.475254 -0.422287 0 0
2020-02-18 19:14:20 GMT 51.475254 -0.422268 0 0
2020-02-18 19:14:16 GMT 51.475239 -0.422250 0 0
2020-02-18 19:14:06 GMT 51.475266 -0.422287 0 0
2020-02-18 19:13:56 GMT 51.475250 -0.422250 0 0
2020-02-18 19:13:46 GMT 51.475101 -0.422058 0 0
2020-02-18 19:13:25 GMT 51.475254 -0.422287 0 0
2020-02-18 19:12:40 GMT 51.475266 -0.422287 0 0
2020-02-18 19:12:10 GMT 51.475262 -0.422287 0 0
2020-02-18 19:12:01 GMT 51.475266 -0.422287 0 0
2020-02-18 19:11:51 GMT 51.475262 -0.422287 0 0
2020-02-18 19:11:20 GMT 51.475266 -0.422287 0 0
2020-02-18 19:11:05 GMT 51.475262 -0.422287 0 0
2020-02-18 19:10:56 GMT 51.475266 -0.422287 0 0
2020-02-18 19:09:45 GMT 51.475262 -0.422287 0 0
2020-02-18 19:09:29 GMT 51.475266 -0.422287 0 0
2020-02-18 19:08:48 GMT 51.475262 -0.422287 0 0
2020-02-18 19:07:51 GMT 51.475266 -0.422287 0 0
2020-02-18 19:07:46 GMT 51.475262 -0.422268 0 0
2020-02-18 19:07:36 GMT 51.475262 -0.422287 0 0
2020-02-18 19:07:26 GMT 51.475262 -0.422268 0 0
2020-02-18 19:07:11 GMT 51.475254 -0.422287 0 0
2020-02-18 19:06:56 GMT 51.475266 -0.422287 0 0
2020-02-18 19:06:21 GMT 51.475262 -0.422287 0 0
2020-02-18 19:06:11 GMT 51.475254 -0.422287 0 0
2020-02-18 19:05:47 GMT 51.475262 -0.422287 0 0
2020-02-18 19:05:37 GMT 51.475262 -0.422268 0 0
2020-02-18 19:05:32 GMT 51.475266 -0.422287 0 0
2020-02-18 19:04:11 GMT 51.475262 -0.422287 0 0
2020-02-18 19:03:46 GMT 51.475266 -0.422287 0 0
2020-02-18 19:03:22 GMT 51.475262 -0.422287 0 0
2020-02-18 19:03:02 GMT 51.475266 -0.422287 0 0
2020-02-18 19:02:41 GMT 51.475262 -0.422268 0 0
2020-02-18 19:02:36 GMT 51.475262 -0.422287 0 0
2020-02-18 19:02:16 GMT 51.475266 -0.422287 0 0
2020-02-18 19:01:07 GMT 51.475262 -0.422268 0 0
2020-02-18 19:00:55 GMT 51.475254 -0.422268 0 0
2020-02-18 19:00:47 GMT 51.475273 -0.422287 0 0
2020-02-18 19:00:30 GMT 51.475254 -0.422268 0 0
2020-02-18 19:00:20 GMT 51.475277 -0.422287 0 0
2020-02-18 19:00:10 GMT 51.475273 -0.422287 0 0
2020-02-18 19:00:05 GMT 51.475250 -0.422268 0 0
2020-02-18 18:59:50 GMT 51.475254 -0.422268 0 0
2020-02-18 18:59:34 GMT 51.475250 -0.422268 0 0
2020-02-18 18:59:24 GMT 51.475250 -0.422287 0 0
2020-02-18 18:58:54 GMT 51.475254 -0.422287 0 0
2020-02-18 18:58:14 GMT 51.475262 -0.422287 0 0
2020-02-18 18:57:59 GMT 51.475254 -0.422287 0 0
2020-02-18 18:56:05 GMT 51.475254 -0.422268 0 0
2020-02-18 18:55:39 GMT 51.475254 -0.422287 0 0
2020-02-18 18:55:24 GMT 51.475262 -0.422287 0 0
2020-02-18 18:54:04 GMT 51.475254 -0.422287 0 0
2020-02-18 18:52:54 GMT 51.475262 -0.422287 0 0
2020-02-18 18:52:34 GMT 51.475262 -0.422268 0 0
2020-02-18 18:52:19 GMT 51.475250 -0.422268 0 0
2020-02-18 18:52:14 GMT 51.475254 -0.422287 0 0
2020-02-18 18:47:54 GMT 51.475262 -0.422268 0 0
2020-02-18 18:47:54 GMT 51.475262 -0.422268 0 0
2020-02-18 18:47:54 GMT 51.475262 -0.422268 0 0
2020-02-18 18:47:38 GMT 51.475262 -0.422268 0 0
2020-02-18 18:46:48 GMT 51.475254 -0.422268 0 0
2020-02-18 18:45:49 GMT 51.475262 -0.422268 0 0
2020-02-18 18:45:39 GMT 51.475266 -0.422268 0 0
2020-02-18 18:45:34 GMT 51.475262 -0.422268 0 0
2020-02-18 18:44:59 GMT 51.475266 -0.422268 0 0
2020-02-18 18:43:22 GMT 51.475262 -0.422268 0 0
2020-02-18 18:43:03 GMT 51.475266 -0.422268 0 0
2020-02-18 18:41:32 GMT 51.475262 -0.422268 0 0
2020-02-18 18:41:22 GMT 51.475254 -0.422268 0 0
2020-02-18 18:41:17 GMT 51.475262 -0.422268 0 0
2020-02-18 18:40:57 GMT 51.475254 -0.422268 0 0
2020-02-18 18:39:27 GMT 51.475262 -0.422268 0 0
2020-02-18 18:38:51 GMT 51.475266 -0.422268 0 0
2020-02-18 18:38:36 GMT 51.475262 -0.422268 0 0
2020-02-18 18:38:06 GMT 51.475266 -0.422268 0 0
2020-02-18 18:37:51 GMT 51.475262 -0.422268 0 0
2020-02-18 18:37:11 GMT 51.475266 -0.422268 0 0
2020-02-18 18:36:06 GMT 51.475262 -0.422268 0 0
2020-02-18 18:35:26 GMT 51.475266 -0.422268 0 0
2020-02-18 18:33:06 GMT 51.475262 -0.422268 0 0
2020-02-18 18:33:01 GMT 51.475266 -0.422268 0 0
2020-02-18 18:31:27 GMT 51.475262 -0.422268 0 0
2020-02-18 18:31:21 GMT 51.475266 -0.422268 0 0
2020-02-18 18:31:01 GMT 51.475262 -0.422268 0 0
2020-02-18 18:30:16 GMT 51.475266 -0.422268 0 0
2020-02-18 18:29:31 GMT 51.475262 -0.422268 0 0
2020-02-18 18:29:11 GMT 51.475266 -0.422268 0 0
2020-02-18 18:28:46 GMT 51.475262 -0.422268 0 0
2020-02-18 18:28:26 GMT 51.475266 -0.422268 0 0
2020-02-18 18:27:21 GMT 51.475250 -0.422287 0 0
2020-02-18 18:26:36 GMT 51.475254 -0.422287 0 0
2020-02-18 18:25:56 GMT 51.475250 -0.422287 0 0
2020-02-18 18:25:06 GMT 51.475254 -0.422287 0 0
2020-02-18 18:25:01 GMT 51.475250 -0.422287 0 0
2020-02-18 18:23:51 GMT 51.475250 -0.422287 0 0
2020-02-18 18:22:20 GMT 51.475250 -0.422287 0 0
2020-02-18 18:21:35 GMT 51.475254 -0.422287 0 0
2020-02-18 18:21:25 GMT 51.475250 -0.422287 0 0
2020-02-18 18:20:14 GMT 51.475254 -0.422287 0 0
2020-02-18 18:18:24 GMT 51.475250 -0.422287 0 0
2020-02-18 18:17:14 GMT 51.475254 -0.422287 0 0
2020-02-18 18:16:34 GMT 51.475250 -0.422287 0 0
2020-02-18 18:16:09 GMT 51.475254 -0.422287 0 0
2020-02-18 18:15:04 GMT 51.475254 -0.422287 0 0
2020-02-18 18:13:34 GMT 51.475250 -0.422287 0 0
2020-02-18 18:10:59 GMT 51.475254 -0.422287 0 0
2020-02-18 18:10:39 GMT 51.475250 -0.422287 0 0
2020-02-18 18:09:29 GMT 51.475250 -0.422287 0 0
2020-02-18 18:09:19 GMT 51.475254 -0.422287 0 0
2020-02-18 18:08:33 GMT 51.475250 -0.422287 0 0
2020-02-18 18:08:08 GMT 51.475254 -0.422287 0 0
2020-02-18 18:06:03 GMT 51.475250 -0.422287 0 0
2020-02-18 18:05:53 GMT 51.475254 -0.422287 0 0
2020-02-18 18:05:24 GMT 51.475250 -0.422287 0 0
2020-02-18 18:04:58 GMT 51.475254 -0.422287 0 0
2020-02-18 18:04:18 GMT 51.475250 -0.422287 0 0
2020-02-18 18:03:48 GMT 51.475254 -0.422287 0 0
2020-02-18 18:02:54 GMT 51.475250 -0.422287 0 0
2020-02-18 18:02:13 GMT 51.475262 -0.422268 0 0
2020-02-18 18:02:03 GMT 51.475254 -0.422268 0 0
2020-02-18 18:01:18 GMT 51.475254 -0.422287 0 0
2020-02-18 18:01:13 GMT 51.475262 -0.422287 0 0
2020-02-18 18:00:42 GMT 51.475254 -0.422287 0 0
2020-02-18 18:00:32 GMT 51.475262 -0.422287 0 0
2020-02-18 17:58:41 GMT 51.475266 -0.422287 0 0
2020-02-18 17:58:32 GMT 51.475262 -0.422287 0 0
2020-02-18 17:58:07 GMT 51.475266 -0.422287 0 0
2020-02-18 17:57:46 GMT 51.475262 -0.422268 0 0
2020-02-18 17:57:36 GMT 51.475266 -0.422287 0 0
2020-02-18 17:57:16 GMT 51.475262 -0.422268 0 0
2020-02-18 17:57:02 GMT 51.475266 -0.422287 0 0
2020-02-18 17:56:46 GMT 51.475254 -0.422287 0 0
2020-02-18 17:56:36 GMT 51.475262 -0.422287 0 0
2020-02-18 17:55:50 GMT 51.475254 -0.422287 0 0
2020-02-18 17:55:46 GMT 51.475262 -0.422287 0 0
2020-02-18 17:55:36 GMT 51.475250 -0.422287 0 0
2020-02-18 17:55:25 GMT 51.475243 -0.422287 0 0
2020-02-18 17:55:16 GMT 51.475250 -0.422287 0 0
2020-02-18 17:55:05 GMT 51.475250 -0.422250 0 0
2020-02-18 17:54:55 GMT 51.475250 -0.422306 0 0
2020-02-18 17:54:45 GMT 51.475243 -0.422306 0 0

Making use of Plane Finder data

You are free to use the raw flight data, aircraft information and images provided in this report for your own purposes provided the data is correctly attributed to Plane Finder. We ask that you please credit Plane Finder and link to planefinder.net in close proximity to the content.

Optionally one of the following logos (no smaller then 150x24px) can be used and must link to planefinder.net

Embedding the Plane Finder map

You are welcome to embed the Plane Finder playback map on your website to offer visitors a more interactive experience. We suggest using the following HTML code:

<iframe src="//planefinder.net/data/report/BA84-G-CIVJ-7700-squawk-2020-02-18/map" width="800" height="600" seamless="seamless"></iframe>

Where our data comes from

Plane Finder has a global network of data feeds and antenna radars that receive data broadcast directly from aircraft. The primary technologies used are ADS-B and MLAT. We also show feeds from the FAA and a FLARM glider feed.

Click here to find out more about the Plane Finder network.

How we collect our data